Share

Adler, Russia

Sochi (URSS) Elev 43 ft | 43.44 °N, 39.93 °E | Change Station

Current weather conditions updated 13 minutes ago

Overcast
Overcast
72 °F
Feels Like 72 °F
N
4
Wind Variable Wind from West
Sunrise 6:35 AM
Sunset 8:05 PM
Moon Waning Gibbous

Today is forecast to be Warmer than yesterday.

Pressure 29.95 in
Visibility 6.2 miles
Clouds Few 4000 ft
Overcast 30000 ft
Dew Point 48 °F
Humidity 43%
Rainfall 0.00 in
Snow Depth Not available.
UV 2 out of 16
Pollen Not available.
Air Quality Not available.
Flu Activity Not available.
METAR URSS 170700Z 27002MPS 9999 FEW040 OVC300 22/09 Q1014 NOSIG RMK R02/31002MPS MT OBSC QFE760 06000070 02000070

More Conditions Fewer Conditions

Pressure 29.95 in
Visibility 6.2 miles
Clouds Few 4000 ft
Overcast 30000 ft
Dew Point 48 °F
Humidity 43%
Rainfall 0.00 in
Snow Depth Not available.
UV 2 out of 16
Pollen Not available.
Air Quality Not available.
Flu Activity Not available.
METAR URSS 170700Z 27002MPS 9999 FEW040 OVC300 22/09 Q1014 NOSIG RMK R02/31002MPS MT OBSC QFE760 06000070 02000070

More Conditions Fewer Conditions

10-Day Forecast

Almanac

Astronomy

Apr. 17, 2014 Rise Set
Actual Time 6:35 AM MSK 8:05 PM MSK
Civil Twilight 6:05 AM MSK 8:35 PM MSK
Nautical Twilight 5:29 AM MSK 9:11 PM MSK
Astronomical Twilight 4:50 AM MSK 9:50 PM MSK
Moon 10:32 PM MSK 7:47 AM MSK
Length of Visible Light 14h 30m
Length of Day
13h 30m
Tomorrow will be 2m 49s longer.
Waning Gibbous, 95% of the Moon is Illuminated
Today
Waning Gibbous
Apr 22
Last Quarter
Apr 29
New
May 6
First Quarter
May 14
Full

Yesterday's Extremes

Country Highs Country Lows

Community

  • Sunset over the Bay
    Sunset over the Bay
  • symphony in blue....
    symphony in blue....
  • Dawn Surprise
    Dawn Surprise
  • Yucca delight
    Yucca delight
  • Sunset inside of the Ocean
    Sunset inside of the Ocean

WunderPhotos

Upload Photos

1,701,875 photos uploaded!

WunderBlogs® & News

Nearby

Snow Depth

Not available.

Coastal Water Temperatures

Place Temperature
No Stations Reporting

Earthquake Activity

City Distance Mag. Time & Date
No recent earthquake activity has been reported nearby.
Minimum magnitude displayed is 2.5.

Nearby Weather Stations

There are no personal weather stations in this area.

What do you think?

We're not finished. Please let us know what you like, what you don't like, and what you are still missing.